Terminal Aerodrome Forecast
Issued by NWS

Home | Current Version | Previous Version | Text Only | Print | Product List | Glossary On
Versions: 1 2 3 4 5 6 7 8 9 10 11 12 13 14 15 16 17 18 19 20 21 22 23 24 25 26
000
FTUS41 KGYX 080136 AAA
TAFHIE
TAF AMD
KHIE 080136Z 0802/0824 VRB03KT P6SM SCT050 BKN090
     FM080600 19007KT 4SM -SHRA BR SCT025 BKN045 OVC080
     FM081200 30006KT P6SM SCT020 BKN035 BKN100
     FM081500 31009KT P6SM SCT045 SCT120=

USA.gov is the U.S. government's official web portal to all federal, state and local government web resources and services.